sensor_id;sensor_type;location;lat;lon;timestamp;pressure;altitude;pressure_sealevel;temperature;humidity
57234;BME280;43090;52.604;13.318;2022-09-09T08:09:44;100601.22;;;17.09;84.61
57234;BME280;43090;52.604;13.318;2022-09-09T08:12:14;100606.03;;;17.42;83.30
57234;BME280;43090;52.604;13.318;2022-09-09T08:14:41;100588.75;;;17.61;84.55
57234;BME280;43090;52.604;13.318;2022-09-09T08:17:18;100589.56;;;17.53;83.85
57234;BME280;43090;52.604;13.318;2022-09-09T08:23:26;100644.06;;;18.03;82.33
57234;BME280;43090;52.604;13.318;2022-09-09T08:26:18;100610.16;;;17.72;80.05
57234;BME280;43090;52.604;13.318;2022-09-09T08:34:00;100595.69;;;17.90;79.97
57234;BME280;43090;52.604;13.318;2022-09-09T09:08:25;100605.75;;;18.32;79.03
57234;BME280;43090;52.604;13.318;2022-09-09T09:10:57;100616.91;;;18.29;80.41
57234;BME280;43090;52.604;13.318;2022-09-09T09:16:31;100609.63;;;18.29;77.71
57234;BME280;43090;52.604;13.318;2022-09-09T09:19:33;100598.75;;;18.21;80.98
57234;BME280;43090;52.604;13.318;2022-09-09T09:22:39;100652.75;;;18.49;76.50
57234;BME280;43090;52.604;13.318;2022-09-09T09:28:24;100650.50;;;18.79;75.50
57234;BME280;43090;52.604;13.318;2022-09-09T09:38:31;100607.13;;;18.95;80.79
57234;BME280;43090;52.604;13.318;2022-09-09T09:41:40;100647.34;;;19.00;78.15
57234;BME280;43090;52.604;13.318;2022-09-09T09:44:24;100650.94;;;19.42;76.75
57234;BME280;43090;52.604;13.318;2022-09-09T09:50:29;100618.72;;;19.30;73.87
57234;BME280;43090;52.604;13.318;2022-09-09T09:53:01;100632.91;;;18.91;73.42
57234;BME280;43090;52.604;13.318;2022-09-09T09:55:33;100635.97;;;19.05;73.94
57234;BME280;43090;52.604;13.318;2022-09-09T09:58:13;100596.31;;;19.12;72.03
57234;BME280;43090;52.604;13.318;2022-09-09T10:00:58;100611.25;;;19.49;73.24
57234;BME280;43090;52.604;13.318;2022-09-09T11:49:04;100645.94;;;20.59;64.08
57234;BME280;43090;52.604;13.318;2022-09-09T12:13:32;100568.16;;;21.43;60.31
57234;BME280;43090;52.604;13.318;2022-09-09T12:16:36;100572.97;;;21.18;57.59
57234;BME280;43090;52.604;13.318;2022-09-09T12:19:21;100607.13;;;21.67;59.56
57234;BME280;43090;52.604;13.318;2022-09-09T12:29:30;100578.69;;;21.08;58.93
57234;BME280;43090;52.604;13.318;2022-09-09T12:32:15;100588.47;;;21.17;57.51
57234;BME280;43090;52.604;13.318;2022-09-09T12:37:54;100554.31;;;21.14;57.24
57234;BME280;43090;52.604;13.318;2022-09-09T12:40:25;100565.31;;;21.21;55.77
57234;BME280;43090;52.604;13.318;2022-09-09T12:42:53;100539.66;;;21.16;57.76
57234;BME280;43090;52.604;13.318;2022-09-09T12:49:32;100554.91;;;21.25;61.91
57234;BME280;43090;52.604;13.318;2022-09-09T12:52:13;100554.09;;;21.39;63.53
57234;BME280;43090;52.604;13.318;2022-09-09T12:54:45;100566.09;;;21.83;58.03
57234;BME280;43090;52.604;13.318;2022-09-09T12:57:23;100551.91;;;21.73;57.59
57234;BME280;43090;52.604;13.318;2022-09-09T13:00:19;100556.31;;;21.89;58.32
57234;BME280;43090;52.604;13.318;2022-09-09T13:02:52;100589.75;;;21.68;59.04
57234;BME280;43090;52.604;13.318;2022-09-09T13:05:38;100544.56;;;21.35;63.99
57234;BME280;43090;52.604;13.318;2022-09-09T13:08:14;100606.09;;;21.44;62.37
57234;BME280;43090;52.604;13.318;2022-09-09T13:10:55;100601.72;;;21.43;63.44
57234;BME280;43090;52.604;13.318;2022-09-09T13:13:36;100554.06;;;21.01;67.33
57234;BME280;43090;52.604;13.318;2022-09-09T13:16:15;100559.72;;;21.00;60.36
57234;BME280;43090;52.604;13.318;2022-09-09T13:19:31;100589.00;;;21.12;61.28
57234;BME280;43090;52.604;13.318;2022-09-09T13:27:54;100537.25;;;20.97;60.02
57234;BME280;43090;52.604;13.318;2022-09-09T13:30:29;100582.56;;;20.90;61.15
57234;BME280;43090;52.604;13.318;2022-09-09T13:33:24;100595.56;;;20.80;62.80
57234;BME280;43090;52.604;13.318;2022-09-09T13:36:11;100540.47;;;20.46;64.63
57234;BME280;43090;52.604;13.318;2022-09-09T13:41:28;100534.81;;;20.56;62.51
57234;BME280;43090;52.604;13.318;2022-09-09T13:44:05;100546.03;;;20.53;62.61
57234;BME280;43090;52.604;13.318;2022-09-09T13:46:40;100536.06;;;20.45;62.28
57234;BME280;43090;52.604;13.318;2022-09-09T13:51:49;100549.97;;;20.51;60.41
57234;BME280;43090;52.604;13.318;2022-09-09T13:57:30;100561.88;;;20.50;62.85
57234;BME280;43090;52.604;13.318;2022-09-09T14:00:09;100579.25;;;20.72;61.05
57234;BME280;43090;52.604;13.318;2022-09-09T14:02:39;100541.97;;;20.49;61.42
57234;BME280;43090;52.604;13.318;2022-09-09T14:09:20;100538.84;;;20.60;65.57
57234;BME280;43090;52.604;13.318;2022-09-09T14:11:56;100548.03;;;20.91;63.24
57234;BME280;43090;52.604;13.318;2022-09-09T14:14:23;100550.03;;;20.97;61.98
57234;BME280;43090;52.604;13.318;2022-09-09T14:16:54;100555.41;;;21.05;60.07
57234;BME280;43090;52.604;13.318;2022-09-09T14:19:20;100541.31;;;21.02;58.59
57234;BME280;43090;52.604;13.318;2022-09-09T14:21:47;100553.09;;;21.17;58.59
57234;BME280;43090;52.604;13.318;2022-09-09T14:24:13;100569.06;;;21.20;58.72
57234;BME280;43090;52.604;13.318;2022-09-09T14:26:40;100564.94;;;21.24;58.25
57234;BME280;43090;52.604;13.318;2022-09-09T14:29:07;100562.97;;;21.18;57.39
57234;BME280;43090;52.604;13.318;2022-09-09T14:31:33;100555.00;;;21.32;57.20
57234;BME280;43090;52.604;13.318;2022-09-09T14:34:01;100555.88;;;21.47;54.96
57234;BME280;43090;52.604;13.318;2022-09-09T14:36:28;100573.94;;;21.63;56.07
57234;BME280;43090;52.604;13.318;2022-09-09T14:38:54;100581.66;;;21.59;55.97
57234;BME280;43090;52.604;13.318;2022-09-09T14:41:21;100573.31;;;21.76;55.42
57234;BME280;43090;52.604;13.318;2022-09-09T14:43:49;100569.56;;;21.39;56.53
57234;BME280;43090;52.604;13.318;2022-09-09T14:46:18;100570.59;;;21.61;58.11
57234;BME280;43090;52.604;13.318;2022-09-09T14:48:45;100577.06;;;21.75;54.14
57234;BME280;43090;52.604;13.318;2022-09-09T14:51:23;100565.91;;;22.00;52.86
57234;BME280;43090;52.604;13.318;2022-09-09T14:53:54;100568.72;;;22.06;52.69
57234;BME280;43090;52.604;13.318;2022-09-09T14:56:25;100554.63;;;21.73;54.28
57234;BME280;43090;52.604;13.318;2022-09-09T14:58:54;100580.28;;;21.78;54.18
57234;BME280;43090;52.604;13.318;2022-09-09T15:01:22;100572.19;;;21.55;56.04
57234;BME280;43090;52.604;13.318;2022-09-09T15:03:53;100543.13;;;21.47;57.26
57234;BME280;43090;52.604;13.318;2022-09-09T15:06:20;100550.84;;;21.59;54.53
57234;BME280;43090;52.604;13.318;2022-09-09T15:08:50;100544.25;;;21.53;55.50
57234;BME280;43090;52.604;13.318;2022-09-09T15:11:20;100526.97;;;21.46;55.90
57234;BME280;43090;52.604;13.318;2022-09-09T15:13:50;100544.81;;;21.49;56.90
57234;BME280;43090;52.604;13.318;2022-09-09T15:16:31;100524.25;;;21.46;56.05
57234;BME280;43090;52.604;13.318;2022-09-09T15:19:01;100531.47;;;21.54;58.27
57234;BME280;43090;52.604;13.318;2022-09-09T15:21:31;100554.63;;;21.73;59.47
57234;BME280;43090;52.604;13.318;2022-09-09T15:23:58;100550.94;;;21.66;63.07
57234;BME280;43090;52.604;13.318;2022-09-09T15:26:26;100518.09;;;21.67;58.51
57234;BME280;43090;52.604;13.318;2022-09-09T15:28:57;100542.38;;;21.99;58.19
57234;BME280;43090;52.604;13.318;2022-09-09T15:31:43;100554.34;;;21.98;57.21
57234;BME280;43090;52.604;13.318;2022-09-09T15:34:10;100526.34;;;21.74;57.79
57234;BME280;43090;52.604;13.318;2022-09-09T15:36:38;100539.00;;;21.82;63.98
57234;BME280;43090;52.604;13.318;2022-09-09T15:39:09;100550.19;;;21.72;61.40
57234;BME280;43090;52.604;13.318;2022-09-09T15:41:39;100550.69;;;21.60;58.18
57234;BME280;43090;52.604;13.318;2022-09-09T15:44:05;100543.97;;;21.63;59.37
57234;BME280;43090;52.604;13.318;2022-09-09T15:49:26;100527.09;;;20.91;71.53
57234;BME280;43090;52.604;13.318;2022-09-09T15:51:59;100558.91;;;20.59;69.88
57234;BME280;43090;52.604;13.318;2022-09-09T15:54:35;100523.19;;;20.71;69.42
57234;BME280;43090;52.604;13.318;2022-09-09T15:57:07;100534.94;;;20.63;72.82
57234;BME280;43090;52.604;13.318;2022-09-09T15:59:34;100532.41;;;20.30;78.15
57234;BME280;43090;52.604;13.318;2022-09-09T16:02:01;100561.63;;;20.28;77.48
57234;BME280;43090;52.604;13.318;2022-09-09T16:04:28;100543.59;;;19.95;81.89
57234;BME280;43090;52.604;13.318;2022-09-09T16:07:01;100558.75;;;19.81;84.03
57234;BME280;43090;52.604;13.318;2022-09-09T16:09:30;100538.19;;;19.95;80.31
57234;BME280;43090;52.604;13.318;2022-09-09T16:12:00;100559.69;;;19.16;81.83
57234;BME280;43090;52.604;13.318;2022-09-09T16:14:28;100543.56;;;19.14;84.12
57234;BME280;43090;52.604;13.318;2022-09-09T16:16:55;100574.91;;;19.67;82.08
57234;BME280;43090;52.604;13.318;2022-09-09T16:19:22;100563.59;;;19.38;83.06
57234;BME280;43090;52.604;13.318;2022-09-09T16:21:57;100533.72;;;18.97;87.24
57234;BME280;43090;52.604;13.318;2022-09-09T16:28:29;100570.38;;;19.09;85.97
57234;BME280;43090;52.604;13.318;2022-09-09T16:30:56;100575.44;;;19.04;84.96
57234;BME280;43090;52.604;13.318;2022-09-09T16:33:38;100591.91;;;19.03;84.37
57234;BME280;43090;52.604;13.318;2022-09-09T16:36:47;100574.72;;;18.77;84.52
57234;BME280;43090;52.604;13.318;2022-09-09T16:39:23;100613.25;;;18.89;84.67
57234;BME280;43090;52.604;13.318;2022-09-09T16:42:09;100588.66;;;18.91;85.63
57234;BME280;43090;52.604;13.318;2022-09-09T16:44:43;100548.91;;;18.73;86.48
57234;BME280;43090;52.604;13.318;2022-09-09T16:47:12;100563.34;;;18.74;86.56
57234;BME280;43090;52.604;13.318;2022-09-09T16:49:41;100575.38;;;18.88;88.90
57234;BME280;43090;52.604;13.318;2022-09-09T16:52:27;100549.13;;;18.80;88.37
57234;BME280;43090;52.604;13.318;2022-09-09T16:54:55;100598.78;;;18.80;89.12
57234;BME280;43090;52.604;13.318;2022-09-09T17:04:48;100595.88;;;18.65;92.10
57234;BME280;43090;52.604;13.318;2022-09-09T17:07:17;100568.03;;;18.47;92.98
57234;BME280;43090;52.604;13.318;2022-09-09T17:09:50;100531.03;;;18.21;92.50
57234;BME280;43090;52.604;13.318;2022-09-09T17:12:20;100527.88;;;18.42;91.38
57234;BME280;43090;52.604;13.318;2022-09-09T17:14:52;100567.56;;;18.09;92.88
57234;BME280;43090;52.604;13.318;2022-09-09T17:17:21;100540.81;;;17.79;94.52
57234;BME280;43090;52.604;13.318;2022-09-09T17:19:57;100550.94;;;18.04;93.99
57234;BME280;43090;52.604;13.318;2022-09-09T17:22:31;100562.78;;;18.03;91.36
57234;BME280;43090;52.604;13.318;2022-09-09T17:24:59;100559.44;;;18.09;93.92
57234;BME280;43090;52.604;13.318;2022-09-09T17:27:27;100532.03;;;17.86;91.91
57234;BME280;43090;52.604;13.318;2022-09-09T17:29:53;100529.56;;;17.66;92.84
57234;BME280;43090;52.604;13.318;2022-09-09T17:32:21;100538.03;;;17.71;94.22
57234;BME280;43090;52.604;13.318;2022-09-09T17:34:48;100573.25;;;17.97;93.87
57234;BME280;43090;52.604;13.318;2022-09-09T17:37:15;100552.00;;;17.85;92.56
57234;BME280;43090;52.604;13.318;2022-09-09T17:39:42;100538.06;;;17.45;96.20
57234;BME280;43090;52.604;13.318;2022-09-09T17:42:22;100513.44;;;17.56;92.40
57234;BME280;43090;52.604;13.318;2022-09-09T18:08:21;100583.66;;;16.95;98.60
57234;BME280;43090;52.604;13.318;2022-09-09T20:55:30;100597.41;;;15.33;89.60
57234;BME280;43090;52.604;13.318;2022-09-09T20:58:17;100641.13;;;15.66;90.10
57234;BME280;43090;52.604;13.318;2022-09-09T21:01:00;100622.75;;;15.70;86.96
57234;BME280;43090;52.604;13.318;2022-09-09T21:03:54;100623.91;;;15.68;90.58
57234;BME280;43090;52.604;13.318;2022-09-09T21:06:45;100636.97;;;15.72;89.97
57234;BME280;43090;52.604;13.318;2022-09-09T21:10:17;100621.94;;;15.60;90.81
57234;BME280;43090;52.604;13.318;2022-09-09T21:16:33;100602.25;;;15.20;90.46
57234;BME280;43090;52.604;13.318;2022-09-09T21:18:59;100618.41;;;15.40;93.12
57234;BME280;43090;52.604;13.318;2022-09-09T21:21:26;100599.56;;;15.01;94.64
57234;BME280;43090;52.604;13.318;2022-09-09T21:23:55;100630.16;;;15.58;93.21
57234;BME280;43090;52.604;13.318;2022-09-09T21:26:23;100615.44;;;15.33;92.42
57234;BME280;43090;52.604;13.318;2022-09-09T21:28:49;100627.94;;;15.24;93.58
57234;BME280;43090;52.604;13.318;2022-09-09T21:31:18;100636.69;;;15.56;91.37
57234;BME280;43090;52.604;13.318;2022-09-09T21:33:45;100647.53;;;15.36;92.90
57234;BME280;43090;52.604;13.318;2022-09-09T21:36:12;100642.84;;;15.48;91.52
57234;BME280;43090;52.604;13.318;2022-09-09T21:38:39;100639.59;;;15.15;91.89
57234;BME280;43090;52.604;13.318;2022-09-09T21:41:11;100651.81;;;15.39;89.52
57234;BME280;43090;52.604;13.318;2022-09-09T21:43:39;100650.94;;;15.48;89.18
57234;BME280;43090;52.604;13.318;2022-09-09T21:46:14;100660.75;;;15.29;92.60
57234;BME280;43090;52.604;13.318;2022-09-09T21:48:42;100649.38;;;15.36;91.94
57234;BME280;43090;52.604;13.318;2022-09-09T21:51:11;100659.16;;;15.37;93.99
57234;BME280;43090;52.604;13.318;2022-09-09T21:53:38;100659.75;;;15.21;93.90
57234;BME280;43090;52.604;13.318;2022-09-09T21:56:06;100665.84;;;15.32;93.39
57234;BME280;43090;52.604;13.318;2022-09-09T21:58:33;100658.63;;;15.13;94.42
57234;BME280;43090;52.604;13.318;2022-09-09T22:01:00;100670.97;;;15.26;94.62
57234;BME280;43090;52.604;13.318;2022-09-09T22:03:27;100673.09;;;15.12;96.13
57234;BME280;43090;52.604;13.318;2022-09-09T22:05:54;100648.66;;;15.24;94.96
57234;BME280;43090;52.604;13.318;2022-09-09T22:08:20;100670.66;;;15.48;94.47
57234;BME280;43090;52.604;13.318;2022-09-09T22:10:47;100669.69;;;15.49;94.46
57234;BME280;43090;52.604;13.318;2022-09-09T22:13:15;100669.94;;;15.66;92.55
57234;BME280;43090;52.604;13.318;2022-09-09T22:15:43;100682.88;;;15.43;93.21
57234;BME280;43090;52.604;13.318;2022-09-09T22:18:11;100668.09;;;15.37;91.64
57234;BME280;43090;52.604;13.318;2022-09-09T22:20:41;100672.34;;;15.40;91.48
57234;BME280;43090;52.604;13.318;2022-09-09T22:23:09;100678.63;;;15.50;90.32
57234;BME280;43090;52.604;13.318;2022-09-09T22:25:36;100679.63;;;15.39;90.98
57234;BME280;43090;52.604;13.318;2022-09-09T22:28:05;100683.00;;;15.02;92.56
57234;BME280;43090;52.604;13.318;2022-09-09T22:30:32;100659.41;;;14.94;94.88
57234;BME280;43090;52.604;13.318;2022-09-09T22:32:59;100673.06;;;15.22;93.58
57234;BME280;43090;52.604;13.318;2022-09-09T22:35:28;100671.38;;;15.21;92.69
57234;BME280;43090;52.604;13.318;2022-09-09T22:37:54;100670.09;;;15.06;93.70
57234;BME280;43090;52.604;13.318;2022-09-09T22:40:23;100683.16;;;15.20;92.43
57234;BME280;43090;52.604;13.318;2022-09-09T22:42:50;100665.41;;;15.27;91.42
57234;BME280;43090;52.604;13.318;2022-09-09T22:45:19;100653.78;;;15.07;90.80
57234;BME280;43090;52.604;13.318;2022-09-09T22:47:46;100663.56;;;15.08;92.19
57234;BME280;43090;52.604;13.318;2022-09-09T22:50:12;100681.59;;;15.18;91.43
57234;BME280;43090;52.604;13.318;2022-09-09T22:52:39;100660.84;;;14.89;91.68
57234;BME280;43090;52.604;13.318;2022-09-09T22:55:06;100663.94;;;14.74;92.52
57234;BME280;43090;52.604;13.318;2022-09-09T22:57:32;100660.28;;;15.05;91.29
57234;BME280;43090;52.604;13.318;2022-09-09T22:59:59;100636.84;;;14.76;92.30
57234;BME280;43090;52.604;13.318;2022-09-09T23:02:26;100643.22;;;14.75;92.68
57234;BME280;43090;52.604;13.318;2022-09-09T23:04:54;100623.28;;;14.46;92.44
57234;BME280;43090;52.604;13.318;2022-09-09T23:07:20;100644.03;;;14.65;94.04
57234;BME280;43090;52.604;13.318;2022-09-09T23:09:48;100656.28;;;14.39;94.26
57234;BME280;43090;52.604;13.318;2022-09-09T23:12:15;100652.75;;;14.48;94.45
57234;BME280;43090;52.604;13.318;2022-09-09T23:14:45;100648.81;;;14.52;95.61
57234;BME280;43090;52.604;13.318;2022-09-09T23:17:12;100665.06;;;14.72;94.02
57234;BME280;43090;52.604;13.318;2022-09-09T23:19:42;100650.91;;;14.79;93.08
57234;BME280;43090;52.604;13.318;2022-09-09T23:22:09;100638.69;;;14.75;94.15
57234;BME280;43090;52.604;13.318;2022-09-09T23:24:36;100659.63;;;14.62;93.81
57234;BME280;43090;52.604;13.318;2022-09-09T23:27:03;100668.50;;;14.83;93.94
57234;BME280;43090;52.604;13.318;2022-09-09T23:29:29;100644.28;;;14.53;94.24
57234;BME280;43090;52.604;13.318;2022-09-09T23:31:56;100645.25;;;14.52;94.92
57234;BME280;43090;52.604;13.318;2022-09-09T23:34:22;100666.31;;;14.68;93.89
57234;BME280;43090;52.604;13.318;2022-09-09T23:36:49;100653.09;;;14.64;93.96
57234;BME280;43090;52.604;13.318;2022-09-09T23:39:15;100629.19;;;14.40;96.21
57234;BME280;43090;52.604;13.318;2022-09-09T23:41:42;100599.09;;;14.25;96.03
57234;BME280;43090;52.604;13.318;2022-09-09T23:44:08;100626.44;;;14.21;97.68
57234;BME280;43090;52.604;13.318;2022-09-09T23:46:37;100617.38;;;14.22;97.46
57234;BME280;43090;52.604;13.318;2022-09-09T23:49:03;100625.91;;;14.37;97.18
57234;BME280;43090;52.604;13.318;2022-09-09T23:51:33;100640.03;;;14.50;97.06
57234;BME280;43090;52.604;13.318;2022-09-09T23:54:01;100637.13;;;14.42;97.58
57234;BME280;43090;52.604;13.318;2022-09-09T23:56:34;100646.78;;;14.75;96.11
57234;BME280;43090;52.604;13.318;2022-09-09T23:59:03;100620.03;;;14.53;97.17
